Time;durP1;ratioP1;P1;durP2;ratioP2;P2;SDS_P1;SDS_P2;PMS_P1;PMS_P2;Temp;Humidity;BMP_temperature;BMP_pressure;BME280_temperature;BME280_humidity;BME280_pressure;Samples;Min_cycle;Max_cycle;Signal;HPM_P1;HPM_P2
2021/11/29 00:00:40;;;;;;;19.17;11.77;;;1.90;99.90;;;;;;5070259;28;20197;-79
2021/11/29 00:03:09;;;;;;;18.70;12.03;;;1.90;99.90;;;;;;5071448;28;20643;-78
2021/11/29 00:05:35;;;;;;;24.07;13.73;;;1.90;99.90;;;;;;5071161;28;20190;-79
2021/11/29 00:08:02;;;;;;;24.33;14.87;;;1.90;99.90;;;;;;5053149;28;20205;-79
2021/11/29 00:10:29;;;;;;;26.93;17.23;;;2.00;99.90;;;;;;5070195;28;20185;-78
2021/11/29 00:12:55;;;;;;;24.57;15.53;;;2.00;99.90;;;;;;5071383;28;20227;-80
2021/11/29 00:15:21;;;;;;;19.70;12.97;;;2.00;99.90;;;;;;5071117;28;20178;-77
2021/11/29 00:17:46;;;;;;;20.53;12.97;;;2.00;99.90;;;;;;5070444;28;20217;-78
2021/11/29 00:20:13;;;;;;;19.73;12.23;;;2.10;99.90;;;;;;5052745;28;20181;-78
2021/11/29 00:22:39;;;;;;;19.93;12.67;;;2.10;99.90;;;;;;5070498;28;20190;-78
2021/11/29 00:25:07;;;;;;;20.70;12.50;;;2.20;99.90;;;;;;5052317;28;20178;-76
2021/11/29 00:27:33;;;;;;;19.83;13.27;;;2.20;99.90;;;;;;5060821;28;20254;-78
2021/11/29 00:29:59;;;;;;;20.33;11.77;;;2.30;99.90;;;;;;5052940;28;20337;-77
2021/11/29 00:32:24;;;;;;;21.03;12.93;;;2.30;99.90;;;;;;5053458;28;20270;-79
2021/11/29 00:34:51;;;;;;;19.60;12.43;;;2.20;99.90;;;;;;5070425;28;20190;-78
2021/11/29 00:37:17;;;;;;;22.17;12.73;;;2.20;99.90;;;;;;5057861;28;20205;-76
2021/11/29 00:39:42;;;;;;;20.37;12.20;;;2.20;99.90;;;;;;5091339;28;20202;-77
2021/11/29 00:42:08;;;;;;;18.83;11.93;;;2.30;99.90;;;;;;5068743;28;20260;-78
2021/11/29 00:44:34;;;;;;;21.90;12.37;;;2.20;99.90;;;;;;5053612;28;20197;-78
2021/11/29 00:46:59;;;;;;;20.40;12.43;;;2.20;99.90;;;;;;5071405;28;20248;-78
2021/11/29 00:49:25;;;;;;;20.73;12.43;;;2.20;99.90;;;;;;5070944;28;20223;-78
2021/11/29 00:51:51;;;;;;;17.77;11.23;;;2.30;99.90;;;;;;5060925;28;20269;-78
2021/11/29 00:54:16;;;;;;;18.93;10.60;;;2.20;99.90;;;;;;5070309;28;20281;-78
2021/11/29 00:56:42;;;;;;;21.77;12.87;;;2.20;99.90;;;;;;5069856;28;20190;-78
2021/11/29 00:59:08;;;;;;;19.77;12.40;;;2.10;99.90;;;;;;5052963;28;20578;-77
2021/11/29 01:01:35;;;;;;;17.60;10.60;;;2.20;99.90;;;;;;5052141;28;20675;-78
2021/11/29 01:04:01;;;;;;;21.00;12.57;;;2.10;99.90;;;;;;5061457;28;20232;-79
2021/11/29 01:06:26;;;;;;;17.50;11.50;;;2.10;99.90;;;;;;5070333;28;20194;-78
2021/11/29 01:08:52;;;;;;;21.43;13.03;;;2.10;99.90;;;;;;5059889;28;20213;-77
2021/11/29 01:11:18;;;;;;;16.97;11.27;;;2.10;99.90;;;;;;5051680;28;20198;-76
2021/11/29 01:13:43;;;;;;;16.47;11.43;;;2.00;99.90;;;;;;5069901;28;20865;-78
2021/11/29 01:16:09;;;;;;;17.87;11.10;;;2.00;99.90;;;;;;5051686;28;21282;-77
2021/11/29 01:18:35;;;;;;;19.10;11.60;;;2.00;99.90;;;;;;5050079;28;20205;-78
2021/11/29 01:21:01;;;;;;;16.47;10.50;;;2.00;99.90;;;;;;5068101;28;20186;-77
2021/11/29 01:23:26;;;;;;;16.63;11.10;;;2.10;99.90;;;;;;5067509;28;20552;-78
2021/11/29 01:25:54;;;;;;;14.17;8.87;;;2.10;99.90;;;;;;5048644;28;20658;-76
2021/11/29 01:28:21;;;;;;;11.90;6.60;;;2.10;99.90;;;;;;5066975;28;20621;-78
2021/11/29 01:30:47;;;;;;;9.63;6.10;;;2.10;99.90;;;;;;5068474;28;20197;-78
2021/11/29 01:33:13;;;;;;;7.47;4.60;;;2.20;99.90;;;;;;5069687;28;20177;-81
2021/11/29 01:35:38;;;;;;;7.30;5.03;;;2.20;99.90;;;;;;5069319;28;20203;-79
2021/11/29 01:38:04;;;;;;;7.47;5.30;;;2.30;99.90;;;;;;5068897;28;20202;-81
2021/11/29 01:40:30;;;;;;;9.67;5.77;;;2.30;99.90;;;;;;5069130;28;20178;-80
2021/11/29 01:43:08;;;;;;;8.17;5.73;;;2.40;99.90;;;;;;5069018;28;20200;-79
2021/11/29 01:45:47;;;;;;;9.80;5.60;;;2.40;99.90;;;;;;5051058;28;20298;-80
2021/11/29 01:48:13;;;;;;;9.10;5.60;;;2.40;99.90;;;;;;5068436;28;20205;-77
2021/11/29 01:50:41;;;;;;;9.13;6.27;;;2.50;99.90;;;;;;5050893;28;20239;-78
2021/11/29 01:53:08;;;;;;;11.70;6.10;;;2.50;99.90;;;;;;5068102;28;21190;-78
2021/11/29 01:55:37;;;;;;;10.83;6.93;;;2.70;99.90;;;;;;5068391;28;20231;-78
2021/11/29 01:58:04;;;;;;;7.77;5.67;;;2.70;99.90;;;;;;5049836;28;20312;-79
2021/11/29 02:00:32;;;;;;;10.40;6.20;;;2.60;99.90;;;;;;5068602;28;20242;-79
2021/11/29 02:02:58;;;;;;;10.83;6.20;;;2.50;99.90;;;;;;5049426;28;20214;-81
2021/11/29 02:05:25;;;;;;;9.17;6.17;;;2.40;99.90;;;;;;5050828;28;20221;-79
2021/11/29 02:07:51;;;;;;;9.60;5.67;;;2.40;99.90;;;;;;5058371;28;20202;-78
2021/11/29 02:10:20;;;;;;;9.60;5.53;;;2.40;99.90;;;;;;5068018;28;20185;-78
2021/11/29 02:12:46;;;;;;;7.60;5.10;;;2.50;99.90;;;;;;5068119;28;20204;-78
2021/11/29 02:15:13;;;;;;;8.87;5.87;;;2.40;99.90;;;;;;5068031;28;20651;-79
2021/11/29 02:17:40;;;;;;;8.27;5.73;;;2.40;99.90;;;;;;5049582;28;20197;-79
2021/11/29 02:20:06;;;;;;;8.57;6.27;;;2.50;99.90;;;;;;5050372;28;20177;-78
2021/11/29 02:22:33;;;;;;;8.20;5.90;;;2.40;99.90;;;;;;5051424;28;20189;-79
2021/11/29 02:24:58;;;;;;;7.27;5.40;;;2.40;99.90;;;;;;5069856;28;20180;-79
2021/11/29 02:27:24;;;;;;;6.40;4.70;;;2.50;99.90;;;;;;5069716;28;20201;-81
2021/11/29 02:29:55;;;;;;;6.80;4.67;;;2.50;99.90;;;;;;5051404;28;20244;-80
2021/11/29 02:32:20;;;;;;;6.67;4.53;;;2.50;99.90;;;;;;5069850;28;20177;-79
2021/11/29 02:34:47;;;;;;;8.20;4.80;;;2.50;99.90;;;;;;5052099;28;20182;-79
2021/11/29 02:37:13;;;;;;;6.73;4.53;;;2.70;99.90;;;;;;5069803;28;20738;-80
2021/11/29 02:39:41;;;;;;;7.00;4.73;;;2.60;99.90;;;;;;5052746;28;20358;-77
2021/11/29 02:42:09;;;;;;;7.07;4.97;;;2.50;99.90;;;;;;5052274;28;20181;-78
2021/11/29 02:44:35;;;;;;;8.83;5.50;;;2.50;99.90;;;;;;5070236;28;20193;-80
2021/11/29 02:47:02;;;;;;;7.10;4.57;;;2.50;99.90;;;;;;5068927;28;20884;-80
2021/11/29 02:49:27;;;;;;;7.70;5.10;;;2.50;99.90;;;;;;5069903;28;20325;-80
2021/11/29 02:51:56;;;;;;;8.40;5.30;;;2.40;99.90;;;;;;5070330;28;20213;-80
2021/11/29 02:54:25;;;;;;;7.17;5.13;;;2.50;99.90;;;;;;5051904;28;20182;-79
2021/11/29 02:56:53;;;;;;;7.73;5.13;;;2.40;99.90;;;;;;5052011;28;20169;-80
2021/11/29 02:59:22;;;;;;;6.23;4.20;;;2.50;99.90;;;;;;5052004;28;20214;-77
2021/11/29 03:01:51;;;;;;;6.47;4.87;;;2.60;99.90;;;;;;5052108;28;20182;-79
2021/11/29 03:04:26;;;;;;;5.40;4.03;;;2.60;99.90;;;;;;5052717;28;20188;-80
2021/11/29 03:06:52;;;;;;;5.57;4.30;;;2.50;99.90;;;;;;5069310;28;20195;-79
2021/11/29 03:09:18;;;;;;;6.60;4.23;;;2.40;99.90;;;;;;5052434;28;20213;-80
2021/11/29 03:11:44;;;;;;;6.27;4.20;;;2.40;99.90;;;;;;5070367;28;20280;-80
2021/11/29 03:14:10;;;;;;;5.77;4.67;;;2.30;99.90;;;;;;5070133;28;20185;-80
2021/11/29 03:16:36;;;;;;;5.87;4.20;;;2.40;99.90;;;;;;5055674;28;20185;-78
2021/11/29 03:19:02;;;;;;;6.17;4.93;;;2.50;99.90;;;;;;5074562;28;20213;-79
2021/11/29 03:21:28;;;;;;;6.03;4.40;;;2.40;99.90;;;;;;5055580;28;20288;-80
2021/11/29 03:23:57;;;;;;;6.93;4.93;;;2.40;99.90;;;;;;5055561;28;20185;-81
2021/11/29 03:26:24;;;;;;;7.90;5.23;;;2.40;99.90;;;;;;5056005;28;20189;-79
2021/11/29 03:28:53;;;;;;;7.30;5.00;;;2.30;99.90;;;;;;5055514;28;20230;-78
2021/11/29 03:31:19;;;;;;;6.53;5.10;;;2.40;99.90;;;;;;5073961;28;20194;-82
2021/11/29 03:33:46;;;;;;;8.70;5.57;;;2.40;99.90;;;;;;5074687;28;20200;-80
2021/11/29 03:36:12;;;;;;;7.60;5.10;;;2.20;99.90;;;;;;5055701;28;20182;-78
2021/11/29 03:38:38;;;;;;;7.03;4.60;;;2.10;99.90;;;;;;5063734;28;20209;-79
2021/11/29 03:41:06;;;;;;;7.17;5.13;;;2.10;99.90;;;;;;5073955;28;20192;-80
2021/11/29 03:43:32;;;;;;;7.40;4.93;;;2.10;99.90;;;;;;5055824;28;20193;-78
2021/11/29 03:45:59;;;;;;;6.90;4.80;;;2.20;99.90;;;;;;5074124;28;20185;-79
2021/11/29 03:48:24;;;;;;;5.60;4.40;;;2.20;99.90;;;;;;5073579;28;20278;-76
2021/11/29 03:50:50;;;;;;;5.50;3.93;;;2.20;99.90;;;;;;5072998;28;20190;-79
2021/11/29 03:53:16;;;;;;;6.33;4.70;;;2.30;99.90;;;;;;5055676;28;20186;-77
2021/11/29 03:55:42;;;;;;;7.23;4.93;;;2.30;99.90;;;;;;5056044;28;20192;-77
2021/11/29 03:58:07;;;;;;;6.63;4.60;;;2.30;99.90;;;;;;5073681;28;20359;-78
2021/11/29 04:00:34;;;;;;;6.30;4.37;;;2.20;99.90;;;;;;5055425;28;20192;-80
2021/11/29 04:03:00;;;;;;;6.00;4.10;;;2.20;99.90;;;;;;5073557;28;20185;-77
2021/11/29 04:05:26;;;;;;;5.80;4.53;;;2.40;99.90;;;;;;5055979;28;20194;-78
2021/11/29 04:07:51;;;;;;;5.90;4.17;;;2.40;99.90;;;;;;5073277;28;20216;-79
2021/11/29 04:13:05;;;;;;;5.50;4.00;;;2.40;99.90;;;;;;5075526;28;20192;-80
2021/11/29 04:15:30;;;;;;;4.83;4.07;;;2.40;99.90;;;;;;5073030;28;20186;-79
2021/11/29 04:17:57;;;;;;;5.23;4.17;;;2.30;99.90;;;;;;5052862;28;20210;-80
2021/11/29 04:20:23;;;;;;;5.33;3.87;;;2.30;99.90;;;;;;5053322;28;21199;-77
2021/11/29 04:22:49;;;;;;;5.03;3.93;;;2.30;99.90;;;;;;5054697;28;20186;-79
2021/11/29 04:25:18;;;;;;;7.27;4.00;;;2.30;99.90;;;;;;5055183;28;20228;-78
2021/11/29 04:27:45;;;;;;;5.40;4.53;;;2.30;99.90;;;;;;5071393;28;20201;-77
2021/11/29 04:30:17;;;;;;;4.97;4.07;;;2.30;99.90;;;;;;5073276;28;20185;-80
2021/11/29 04:32:48;;;;;;;5.13;3.93;;;2.30;99.90;;;;;;5073521;28;20170;-79
2021/11/29 04:35:15;;;;;;;5.57;3.37;;;2.30;99.90;;;;;;5054587;28;20189;-80
2021/11/29 04:37:40;;;;;;;6.07;3.63;;;2.30;99.90;;;;;;5072739;28;20807;-78
2021/11/29 04:40:07;;;;;;;5.30;3.80;;;2.40;99.90;;;;;;5073348;28;20185;-77
2021/11/29 04:42:33;;;;;;;4.70;3.87;;;2.40;99.90;;;;;;5074014;28;20185;-81
2021/11/29 04:44:59;;;;;;;5.93;4.10;;;2.40;99.90;;;;;;5077580;28;20177;-79
2021/11/29 04:47:24;;;;;;;4.17;3.73;;;2.30;99.90;;;;;;5054164;28;20225;-76
2021/11/29 04:49:50;;;;;;;6.23;3.60;;;2.30;99.90;;;;;;5054269;28;20220;-78
2021/11/29 04:52:17;;;;;;;4.97;3.70;;;2.30;99.90;;;;;;5054581;28;20178;-77
2021/11/29 04:54:43;;;;;;;4.00;3.23;;;2.30;99.90;;;;;;5054704;28;20185;-77
2021/11/29 04:57:09;;;;;;;6.60;3.70;;;2.30;99.90;;;;;;5071720;28;20208;-77
2021/11/29 04:59:35;;;;;;;4.80;4.20;;;2.30;99.90;;;;;;5055359;28;20182;-79
2021/11/29 05:02:01;;;;;;;4.20;3.70;;;2.40;99.90;;;;;;5053824;28;20178;-79
2021/11/29 05:04:28;;;;;;;3.90;3.50;;;2.40;99.90;;;;;;5070746;28;20188;-80
2021/11/29 05:06:53;;;;;;;6.10;4.90;;;2.30;99.90;;;;;;5070573;28;20182;-77
2021/11/29 05:09:19;;;;;;;4.40;3.63;;;2.40;99.90;;;;;;5069680;28;21201;-78
2021/11/29 05:11:45;;;;;;;4.23;3.83;;;2.40;99.90;;;;;;5053901;28;20649;-78
2021/11/29 05:14:10;;;;;;;3.97;3.07;;;2.40;99.90;;;;;;5053493;28;20203;-79
2021/11/29 05:16:38;;;;;;;4.77;3.83;;;2.50;99.90;;;;;;5071030;28;20182;-78
2021/11/29 05:19:04;;;;;;;3.50;2.93;;;2.40;99.90;;;;;;5070788;28;20324;-78
2021/11/29 05:21:29;;;;;;;4.73;3.47;;;2.40;99.90;;;;;;5053534;28;20285;-75
2021/11/29 05:23:55;;;;;;;6.80;3.80;;;2.40;99.90;;;;;;5053287;28;20182;-78
2021/11/29 05:26:22;;;;;;;4.67;3.57;;;2.40;99.90;;;;;;5053244;28;20190;-76
2021/11/29 05:28:49;;;;;;;3.73;3.30;;;2.30;99.90;;;;;;5070584;28;20202;-79
2021/11/29 05:31:15;;;;;;;8.67;6.07;;;2.20;99.90;;;;;;5069676;28;20231;-77
2021/11/29 05:33:41;;;;;;;6.70;4.90;;;2.20;99.90;;;;;;5053029;28;20177;-77
2021/11/29 05:36:07;;;;;;;7.27;5.07;;;2.20;99.90;;;;;;5051937;28;20212;-78
2021/11/29 05:38:33;;;;;;;10.40;6.20;;;2.20;99.90;;;;;;5050758;28;20205;-79
2021/11/29 05:41:00;;;;;;;7.27;5.27;;;2.20;99.90;;;;;;5052072;28;20186;-77
2021/11/29 05:43:26;;;;;;;5.97;4.53;;;2.20;99.90;;;;;;5050471;28;20189;-78
2021/11/29 05:45:52;;;;;;;6.60;4.40;;;2.20;99.90;;;;;;5050404;28;20414;-77
2021/11/29 05:48:18;;;;;;;6.83;4.10;;;2.20;99.90;;;;;;5049420;28;20212;-78
2021/11/29 05:50:43;;;;;;;6.00;4.80;;;2.20;99.90;;;;;;5048335;28;20177;-77
2021/11/29 05:53:09;;;;;;;6.83;5.13;;;2.10;99.90;;;;;;5066207;28;20262;-77
2021/11/29 05:55:35;;;;;;;6.60;4.97;;;2.20;99.90;;;;;;5050076;28;20260;-79
2021/11/29 05:58:01;;;;;;;6.37;5.00;;;2.30;99.90;;;;;;5053254;28;20213;-78
2021/11/29 06:00:27;;;;;;;6.00;4.10;;;2.20;99.90;;;;;;5052836;28;20182;-78
2021/11/29 06:02:52;;;;;;;5.57;3.87;;;2.10;99.90;;;;;;5070405;28;20188;-76
2021/11/29 06:05:18;;;;;;;5.80;4.17;;;2.10;99.90;;;;;;5071312;28;21129;-78
2021/11/29 06:07:44;;;;;;;5.10;3.73;;;2.00;99.90;;;;;;5052067;28;20201;-78
2021/11/29 06:10:11;;;;;;;5.90;4.03;;;2.10;99.90;;;;;;5070658;28;20206;-78
2021/11/29 06:12:37;;;;;;;4.07;3.40;;;2.00;99.90;;;;;;5070066;28;20212;-79
2021/11/29 06:15:04;;;;;;;4.83;3.63;;;2.00;99.90;;;;;;5069457;28;20255;-78
2021/11/29 06:17:30;;;;;;;4.10;3.30;;;2.00;99.90;;;;;;5051796;28;20292;-78
2021/11/29 06:19:56;;;;;;;5.63;4.20;;;2.00;99.90;;;;;;5070370;28;20181;-76
2021/11/29 06:22:21;;;;;;;6.63;4.90;;;2.00;99.90;;;;;;5070661;28;20261;-78
2021/11/29 06:24:47;;;;;;;5.80;4.07;;;1.90;99.90;;;;;;5052247;28;20184;-78
2021/11/29 06:27:13;;;;;;;6.13;4.57;;;1.90;99.90;;;;;;5070083;28;20606;-78
2021/11/29 06:29:38;;;;;;;8.07;5.30;;;1.90;99.90;;;;;;5069524;28;20221;-78
2021/11/29 06:32:04;;;;;;;7.93;5.53;;;1.90;99.90;;;;;;5051640;28;20173;-76
2021/11/29 06:34:30;;;;;;;8.70;5.60;;;1.90;99.90;;;;;;5070088;28;20182;-77
2021/11/29 06:36:57;;;;;;;7.87;5.63;;;1.90;99.90;;;;;;5052086;28;20308;-79
2021/11/29 06:39:23;;;;;;;7.87;5.80;;;1.90;99.90;;;;;;5042123;28;20237;-79
2021/11/29 06:41:49;;;;;;;8.90;5.93;;;1.90;99.90;;;;;;5067902;28;20185;-79
2021/11/29 06:44:15;;;;;;;8.50;5.27;;;2.00;99.90;;;;;;5069766;28;20178;-76
2021/11/29 06:46:41;;;;;;;7.87;5.57;;;2.00;99.90;;;;;;5067763;28;20216;-76
2021/11/29 06:49:07;;;;;;;8.17;5.53;;;2.00;99.90;;;;;;5067791;28;20241;-78
2021/11/29 06:51:34;;;;;;;8.27;5.20;;;2.00;99.90;;;;;;5051453;28;20666;-78
2021/11/29 06:54:00;;;;;;;7.83;5.73;;;2.10;99.90;;;;;;5069385;28;20289;-77
2021/11/29 06:56:26;;;;;;;7.00;4.93;;;2.10;99.90;;;;;;5070316;28;20643;-80
2021/11/29 06:58:52;;;;;;;7.23;5.47;;;2.10;99.90;;;;;;5053065;28;20691;-80
2021/11/29 07:01:18;;;;;;;8.20;5.53;;;2.20;99.90;;;;;;5051102;28;20209;-76
2021/11/29 07:03:45;;;;;;;7.90;5.90;;;2.10;99.90;;;;;;5069065;28;20177;-78
2021/11/29 07:06:10;;;;;;;8.73;6.47;;;2.10;99.90;;;;;;5050559;28;20182;-77
2021/11/29 07:08:36;;;;;;;7.60;4.87;;;2.10;99.90;;;;;;5050914;28;20220;-79
2021/11/29 07:11:02;;;;;;;7.83;4.77;;;2.10;99.90;;;;;;5050486;28;20200;-76
2021/11/29 07:13:28;;;;;;;6.30;4.70;;;2.00;99.90;;;;;;5068971;28;20235;-80
2021/11/29 07:15:54;;;;;;;8.17;4.63;;;2.10;99.90;;;;;;5050824;28;20273;-79
2021/11/29 07:18:20;;;;;;;5.37;4.33;;;2.20;99.90;;;;;;5069864;28;20217;-77
2021/11/29 07:20:45;;;;;;;7.27;4.67;;;2.20;99.90;;;;;;5069306;28;20277;-80
2021/11/29 07:23:12;;;;;;;6.00;4.50;;;2.20;99.90;;;;;;5051252;28;20208;-78
2021/11/29 07:25:37;;;;;;;7.33;4.77;;;2.20;99.90;;;;;;5070501;28;21275;-77
2021/11/29 07:28:03;;;;;;;5.93;4.30;;;2.30;99.90;;;;;;5069628;28;20223;-79
2021/11/29 07:30:30;;;;;;;5.63;4.23;;;2.20;99.90;;;;;;5069444;28;20181;-78
2021/11/29 07:32:56;;;;;;;6.73;4.80;;;2.20;99.90;;;;;;5069984;28;20185;-80
2021/11/29 07:35:28;;;;;;;5.80;4.67;;;2.30;99.90;;;;;;5069174;28;20177;-79
2021/11/29 07:37:56;;;;;;;8.53;5.17;;;2.30;99.90;;;;;;5069698;28;20308;-78
2021/11/29 07:40:28;;;;;;;7.17;4.70;;;2.40;99.90;;;;;;5069533;28;20178;-77
2021/11/29 07:42:58;;;;;;;6.90;4.80;;;2.40;99.90;;;;;;5051324;28;20220;-79
2021/11/29 07:45:24;;;;;;;7.73;5.10;;;2.40;99.90;;;;;;5069078;28;20617;-75
2021/11/29 07:47:49;;;;;;;6.20;5.20;;;2.40;99.90;;;;;;5068603;28;20214;-78
2021/11/29 07:50:17;;;;;;;5.83;4.17;;;2.40;99.90;;;;;;5069409;28;20382;-77
2021/11/29 07:52:43;;;;;;;5.43;3.97;;;2.40;99.90;;;;;;5057380;28;20245;-78
2021/11/29 07:55:15;;;;;;;5.90;3.80;;;2.30;99.90;;;;;;5068836;28;20174;-78
2021/11/29 07:57:43;;;;;;;4.97;3.90;;;2.30;99.90;;;;;;5069236;28;20214;-81
2021/11/29 08:00:17;;;;;;;6.40;4.13;;;2.30;99.90;;;;;;5050864;28;20185;-78
2021/11/29 08:02:42;;;;;;;6.80;4.90;;;2.30;99.90;;;;;;5071170;28;20186;-79
2021/11/29 08:05:08;;;;;;;5.93;4.23;;;2.30;99.90;;;;;;5073745;28;20584;-78
2021/11/29 08:07:34;;;;;;;5.80;4.47;;;2.40;99.90;;;;;;5054582;28;20232;-78
2021/11/29 08:10:00;;;;;;;7.30;5.13;;;2.50;99.90;;;;;;5054671;28;20244;-78
2021/11/29 08:12:25;;;;;;;9.00;6.10;;;2.50;99.90;;;;;;5054931;28;20895;-79
2021/11/29 08:14:53;;;;;;;7.03;5.67;;;2.50;99.90;;;;;;5055103;28;20188;-79
2021/11/29 08:17:19;;;;;;;7.33;5.53;;;2.50;99.90;;;;;;5072368;28;20190;-79
2021/11/29 08:19:44;;;;;;;6.53;5.33;;;2.60;99.90;;;;;;5072837;28;20185;-80
2021/11/29 08:22:10;;;;;;;7.73;5.77;;;2.50;99.90;;;;;;5053443;28;20188;-78
2021/11/29 08:24:36;;;;;;;9.80;6.07;;;2.50;99.90;;;;;;5071539;28;20260;-79
2021/11/29 08:27:02;;;;;;;8.07;6.33;;;2.50;99.90;;;;;;5054956;28;20184;-79
2021/11/29 08:29:27;;;;;;;10.37;6.77;;;2.60;99.90;;;;;;5054921;28;20210;-78
2021/11/29 08:31:53;;;;;;;8.27;6.30;;;2.70;99.90;;;;;;5073605;28;20643;-77
2021/11/29 08:34:19;;;;;;;9.27;6.50;;;2.70;99.90;;;;;;5055364;28;20188;-78
2021/11/29 08:36:44;;;;;;;10.07;6.87;;;2.70;99.90;;;;;;5073207;28;20178;-79
2021/11/29 08:39:10;;;;;;;11.73;7.60;;;2.70;99.90;;;;;;5054623;28;20201;-80
2021/11/29 08:41:36;;;;;;;10.83;7.30;;;2.70;99.90;;;;;;5055018;28;20181;-78
2021/11/29 08:44:03;;;;;;;13.77;9.10;;;2.70;99.90;;;;;;5054661;28;20178;-78
2021/11/29 08:46:29;;;;;;;16.23;8.80;;;2.70;99.90;;;;;;5054112;28;20234;-79
2021/11/29 08:48:55;;;;;;;13.17;8.87;;;2.80;99.90;;;;;;5073100;28;20244;-80
2021/11/29 08:51:21;;;;;;;13.07;8.17;;;2.80;99.90;;;;;;5072907;28;20185;-77
2021/11/29 08:53:46;;;;;;;13.43;8.70;;;2.80;99.90;;;;;;5073694;28;20220;-80
2021/11/29 08:56:12;;;;;;;10.93;7.27;;;2.80;99.90;;;;;;5054333;28;20181;-77
2021/11/29 08:58:38;;;;;;;10.27;6.90;;;2.80;99.90;;;;;;5072179;28;20221;-77
2021/11/29 09:01:05;;;;;;;11.73;7.37;;;2.80;99.90;;;;;;5071410;28;20193;-79
2021/11/29 09:03:31;;;;;;;11.43;7.33;;;2.90;99.90;;;;;;5054218;28;20181;-77
2021/11/29 09:05:58;;;;;;;11.23;7.53;;;2.90;99.90;;;;;;5053830;28;20674;-76
2021/11/29 09:08:24;;;;;;;13.20;6.80;;;3.10;99.90;;;;;;5063033;28;20300;-78
2021/11/29 09:10:50;;;;;;;9.67;6.60;;;3.00;99.90;;;;;;5071277;28;20205;-78
2021/11/29 09:13:17;;;;;;;9.53;6.37;;;3.00;99.90;;;;;;5070135;28;20174;-79
2021/11/29 09:15:45;;;;;;;10.50;6.67;;;3.00;99.90;;;;;;5052483;28;20185;-75
2021/11/29 09:18:11;;;;;;;11.00;6.37;;;3.00;99.90;;;;;;5072331;28;20200;-77
2021/11/29 09:20:39;;;;;;;11.57;6.93;;;3.00;99.90;;;;;;5054153;28;20190;-79
2021/11/29 09:23:06;;;;;;;11.47;6.00;;;3.10;99.90;;;;;;5072129;28;20170;-79
2021/11/29 09:25:33;;;;;;;9.83;6.37;;;3.10;99.90;;;;;;5071214;28;20178;-77
2021/11/29 09:27:59;;;;;;;10.37;6.97;;;3.10;99.90;;;;;;5053281;28;20232;-77
2021/11/29 09:30:25;;;;;;;11.13;6.07;;;3.10;99.90;;;;;;5053772;28;20666;-79
2021/11/29 09:32:51;;;;;;;8.77;5.50;;;3.20;99.90;;;;;;5060682;28;20174;-77
2021/11/29 09:35:19;;;;;;;9.37;6.27;;;3.20;99.90;;;;;;5053257;28;20546;-78
2021/11/29 09:37:46;;;;;;;8.27;5.23;;;3.20;99.90;;;;;;5070654;28;20258;-78
2021/11/29 09:40:17;;;;;;;9.83;6.30;;;3.20;99.90;;;;;;5053363;28;20574;-77
2021/11/29 09:42:42;;;;;;;12.07;7.00;;;3.20;99.90;;;;;;5051601;28;20217;-78
2021/11/29 09:45:11;;;;;;;11.33;6.47;;;3.30;99.90;;;;;;5070390;28;20678;-79
2021/11/29 09:47:37;;;;;;;11.33;6.90;;;3.30;99.90;;;;;;5069537;28;20212;-78
2021/11/29 09:50:05;;;;;;;9.63;6.17;;;3.30;99.90;;;;;;5070372;28;20557;-80
2021/11/29 09:52:31;;;;;;;10.83;6.87;;;3.30;99.90;;;;;;5070192;28;20186;-78
2021/11/29 09:54:56;;;;;;;11.90;7.00;;;3.30;99.90;;;;;;5070031;28;21115;-80
2021/11/29 09:57:22;;;;;;;10.00;6.53;;;3.40;99.90;;;;;;5051446;28;20228;-78
2021/11/29 09:59:48;;;;;;;10.50;6.73;;;3.40;99.90;;;;;;5050930;28;20530;-80
2021/11/29 10:02:14;;;;;;;10.87;6.70;;;3.40;99.90;;;;;;5068416;28;20177;-76
2021/11/29 10:04:49;;;;;;;9.43;6.03;;;3.50;99.90;;;;;;5067324;28;20227;-78
2021/11/29 10:07:33;;;;;;;9.43;6.33;;;3.60;99.90;;;;;;5065745;28;20197;-76
2021/11/29 10:10:30;;;;;;;12.03;6.93;;;3.60;99.90;;;;;;5063908;28;21349;-78
2021/11/29 10:13:07;;;;;;;11.13;7.20;;;3.70;99.90;;;;;;5049206;28;20181;-81
2021/11/29 10:15:42;;;;;;;12.97;7.03;;;3.80;99.90;;;;;;5052069;28;20790;-77
2021/11/29 10:18:17;;;;;;;9.93;6.90;;;3.80;99.90;;;;;;5058388;28;20209;-80
2021/11/29 10:21:07;;;;;;;11.70;6.77;;;3.70;99.90;;;;;;5052453;28;20748;-75
2021/11/29 10:23:34;;;;;;;11.63;6.90;;;3.70;99.90;;;;;;5070513;28;20185;-79
2021/11/29 10:26:07;;;;;;;10.00;6.17;;;3.60;99.90;;;;;;5051794;28;21188;-78
2021/11/29 10:28:36;;;;;;;10.67;6.60;;;3.70;99.90;;;;;;5069589;28;21307;-81
2021/11/29 10:31:06;;;;;;;11.90;6.97;;;3.60;99.90;;;;;;5051387;28;20182;-77
2021/11/29 10:33:33;;;;;;;12.03;6.80;;;3.60;99.90;;;;;;5051608;28;20581;-76
2021/11/29 10:36:12;;;;;;;11.00;6.73;;;3.60;99.90;;;;;;5052071;28;20265;-78
2021/11/29 10:38:40;;;;;;;10.63;7.10;;;3.60;99.90;;;;;;5056700;28;20202;-78
2021/11/29 10:41:07;;;;;;;11.40;6.90;;;3.60;99.90;;;;;;5070049;28;20211;-79
2021/11/29 10:43:44;;;;;;;11.23;6.60;;;3.70;99.90;;;;;;5068674;28;20178;-80
2021/11/29 10:46:26;;;;;;;9.70;6.33;;;3.80;99.90;;;;;;5052370;28;20217;-79
2021/11/29 10:48:55;;;;;;;10.43;6.83;;;3.90;99.90;;;;;;5051902;28;20209;-77
2021/11/29 10:51:23;;;;;;;10.43;6.50;;;3.90;99.90;;;;;;5069534;28;20255;-79
2021/11/29 10:54:16;;;;;;;9.50;6.30;;;3.90;99.90;;;;;;5069247;28;20181;-79
2021/11/29 10:56:43;;;;;;;10.47;5.73;;;3.80;99.90;;;;;;5047981;28;20193;-77
2021/11/29 10:59:15;;;;;;;9.30;6.30;;;3.70;99.90;;;;;;5051772;28;20227;-78
2021/11/29 11:01:48;;;;;;;8.63;6.00;;;3.90;99.90;;;;;;5051754;28;20602;-77
2021/11/29 11:04:17;;;;;;;12.13;6.53;;;3.90;99.90;;;;;;5069304;28;20189;-79
2021/11/29 11:06:45;;;;;;;10.00;6.10;;;3.90;99.90;;;;;;5049019;28;20263;-80
2021/11/29 11:09:21;;;;;;;8.83;5.90;;;3.80;99.90;;;;;;5049141;28;20209;-77
2021/11/29 11:12:11;;;;;;;10.27;6.43;;;3.90;99.90;;;;;;5049263;28;20182;-78
2021/11/29 11:14:38;;;;;;;9.10;6.30;;;3.90;99.90;;;;;;5048833;28;20201;-80
2021/11/29 11:17:06;;;;;;;9.37;6.90;;;3.90;99.90;;;;;;5049250;28;20178;-79
2021/11/29 11:19:36;;;;;;;8.30;6.23;;;3.90;99.90;;;;;;5067272;28;20659;-78
2021/11/29 11:22:14;;;;;;;8.07;5.93;;;4.00;99.90;;;;;;5046060;28;20664;-78
2021/11/29 11:24:50;;;;;;;11.60;6.50;;;4.00;99.90;;;;;;5045760;28;20268;-79
2021/11/29 11:27:17;;;;;;;10.70;5.77;;;3.90;99.90;;;;;;5065830;28;20209;-80
2021/11/29 11:29:44;;;;;;;10.43;6.40;;;3.90;99.90;;;;;;5068926;28;20216;-80
2021/11/29 11:32:40;;;;;;;10.17;6.60;;;3.90;99.90;;;;;;5069764;28;20188;-80
2021/11/29 11:35:18;;;;;;;9.27;6.37;;;4.00;99.90;;;;;;5060873;28;20548;-79
2021/11/29 11:37:47;;;;;;;9.27;6.73;;;4.00;99.90;;;;;;5069539;28;20220;-78
2021/11/29 11:40:16;;;;;;;8.80;5.80;;;4.00;99.90;;;;;;5070914;28;20181;-80
2021/11/29 11:42:43;;;;;;;11.07;6.47;;;3.90;99.90;;;;;;5053626;28;20683;-80
2021/11/29 11:45:11;;;;;;;12.17;6.97;;;3.90;99.90;;;;;;5048527;28;20186;-79
2021/11/29 11:47:38;;;;;;;12.80;7.77;;;3.80;99.90;;;;;;5051782;28;20209;-78
2021/11/29 11:50:06;;;;;;;8.63;5.70;;;3.80;99.90;;;;;;5053647;28;20197;-77
2021/11/29 11:52:33;;;;;;;8.57;5.43;;;3.80;99.90;;;;;;5071575;28;20190;-79
2021/11/29 11:55:01;;;;;;;11.87;6.67;;;3.70;99.90;;;;;;5071118;28;20207;-80
2021/11/29 11:57:28;;;;;;;10.80;6.40;;;3.80;99.90;;;;;;5068363;28;20236;-79
2021/11/29 12:00:39;;;;;;;8.50;5.67;;;3.80;99.90;;;;;;5070081;28;20174;-77
2021/11/29 12:03:39;;;;;;;8.37;5.47;;;3.90;99.90;;;;;;5043650;28;20808;-81
2021/11/29 12:06:07;;;;;;;9.50;5.97;;;3.80;99.90;;;;;;5046666;28;20193;-81
2021/11/29 12:08:47;;;;;;;10.70;6.43;;;3.80;99.90;;;;;;5070195;28;20694;-80
2021/11/29 12:11:35;;;;;;;12.13;5.87;;;3.80;99.90;;;;;;5069776;28;20563;-78
2021/11/29 12:14:17;;;;;;;7.60;5.70;;;3.70;99.90;;;;;;5070134;28;20174;-81
2021/11/29 12:17:16;;;;;;;8.43;5.63;;;3.80;99.90;;;;;;5050697;28;20185;-79
2021/11/29 12:19:43;;;;;;;8.87;5.50;;;3.80;99.90;;;;;;5066016;28;20208;-79
2021/11/29 12:22:20;;;;;;;8.53;5.83;;;3.80;99.90;;;;;;5068894;28;20182;-81
2021/11/29 12:25:11;;;;;;;8.90;5.33;;;3.90;99.90;;;;;;5086652;28;20185;-78
2021/11/29 12:27:43;;;;;;;7.97;5.27;;;3.90;99.90;;;;;;5086031;28;20296;-76
2021/11/29 12:30:09;;;;;;;8.27;5.87;;;4.00;99.90;;;;;;5087819;28;20193;-78
2021/11/29 12:32:54;;;;;;;9.30;5.17;;;4.00;99.90;;;;;;5087894;28;20252;-77
2021/11/29 12:35:34;;;;;;;9.33;5.67;;;4.00;99.90;;;;;;5086710;28;21049;-76
2021/11/29 12:38:04;;;;;;;7.97;4.93;;;4.00;99.90;;;;;;5085214;28;20303;-77
2021/11/29 12:41:09;;;;;;;8.73;4.97;;;3.90;99.90;;;;;;5063374;28;20699;-82
2021/11/29 12:43:46;;;;;;;7.30;4.93;;;4.00;99.90;;;;;;5079598;28;20219;-81
2021/11/29 12:46:24;;;;;;;8.73;5.53;;;3.90;99.90;;;;;;5074042;28;20173;-78
2021/11/29 12:48:51;;;;;;;8.27;5.40;;;3.90;99.90;;;;;;5068817;28;20217;-80
2021/11/29 12:51:41;;;;;;;9.60;5.70;;;3.90;99.90;;;;;;5051006;28;20597;-80
2021/11/29 12:54:43;;;;;;;9.23;5.87;;;3.90;99.90;;;;;;5059188;28;20178;-78
2021/11/29 12:57:31;;;;;;;9.47;6.00;;;3.80;99.90;;;;;;4990082;28;20713;-78
2021/11/29 12:59:58;;;;;;;10.10;5.57;;;3.80;99.90;;;;;;5065224;28;20200;-78
2021/11/29 13:02:47;;;;;;;7.87;5.37;;;3.80;99.90;;;;;;5064028;28;20182;-79